NOAA-Style Climate Reports: Lisbon, NH


Report for 2021 March
                  MONTHLY CLIMATOLOGICAL SUMMARY FOR 3/2021
                                        HEAT  COOL        
     MEAN                               DEG   DEG       WIND SPEED       DOM MEAN  MEAN
DAY  TEMP  HIGH   TIME     LOW   TIME   DAYS  DAYS RAIN AVG  HI  TIME    DIR BAROM HUM
---------------------------------------------------------------------------------------
1    -1.5  -1.5     0:00  -1.5     0:00   65    0  0.00   0   0     0:00   N 29.54    0
2    -1.5  -1.5     0:00  -1.5     0:00   65    0  0.00   0   0     0:00   N 29.88    0
3    -1.5  -1.5     0:00  -1.5     0:00   65    0  0.00   0   0     0:00   N 29.76    0
4    -1.5  -1.5     0:00  -1.5     0:00   65    0  0.00   0   0     0:00   N 29.71    0
5    -1.5  -1.5     0:00  -1.5     0:00   65    0  0.00   0   0     0:00   N 29.69    0
6    -1.5  -1.5     0:00  -1.5     0:00   65    0  0.00   0   0     0:00   N 29.94    0
7    -1.5  -1.5     0:00  -1.5     0:00   65    0  0.00   0   0     0:00   N 30.22    0
8    -1.5  -1.5     0:00  -1.5     0:00   65    0  0.00   0   0     0:00   N 30.29    0
9    -1.5  -1.5     0:00  -1.5     0:00   42    0  0.00   0   0     0:00   N 30.42    0
10   -1.5  -1.5     0:00  -1.5     0:00   65    0  0.00   0   0     0:00   N 30.37    0
11   -1.5  -1.5     0:00  -1.5     0:00   65    0  0.00   0   0     0:00   N 30.01    0
12   -1.5  -1.5     0:00  -1.5     0:00   65    0  0.00   0   0     0:00   N 29.83    0
13   -1.5  -1.5     0:00  -1.5     0:00   65    0  0.00   0   0     0:00   N 30.02    0
14   -1.5  -1.5     0:00  -1.5     0:00   62    0  0.00   0   0     0:00   N 29.87    0
15   -1.5  -1.5     0:00  -1.5     0:00   65    0  0.00   0   0     0:00   N 30.21    0
16   -1.5  -1.5     0:00  -1.5     0:00   65    0  0.00   0   0     0:00   N 30.18    0
17   -1.5  -1.5     0:00  -1.5     0:00   65    0  0.00   0   0     0:00   N 30.04    0
18   -1.5  -1.5     0:00  -1.5     0:00   65    0  0.00   0   0     0:00   N 29.93    0
19   -1.5  -1.5     0:00  -1.5     0:00   65    0  0.00   0   0     0:00   N 30.21    0
20   12.7  51.4    15:18  -1.5     0:00   50    0  0.20   0   0     0:00   N 30.40   19
21   36.1  60.8    15:21  18.5     7:02   27    0  0.00   0   0     0:00   N 30.49   63
22   38.4  64.5    15:25  19.0     6:48   25    0  0.00   0   1    19:28  NW 30.34   59
23   41.5  67.6    15:10  22.1     6:52   22    0  0.00   0   0     0:00   N 30.23   59
24   41.8  55.5    16:03  26.4     6:41   22    0  0.00   0   1    18:40  SW 30.15   69
25   53.1  67.8    17:14  43.3    23:57   11    1  0.00   0   1    12:02 SSW 29.95   77
26   48.0  63.3    14:05  40.6    23:57   15    0  0.38   0   0     0:00   N 29.60   95
27   29.2  29.6     0:00  28.8     0:50    1    0  0.00   0   0     0:00   N 30.13   96
28   38.4  44.3    19:25  28.5     2:20   25    0  0.14   0   0     0:00   N 29.77   91
29   34.6  40.4     0:00  25.4    23:52   29    0  0.03   0   0     0:00   N 29.74   69
30   41.3  59.8    16:44  19.9     6:35   22    0  0.00   0  13    23:45 WSW 30.23   52
31   49.4  59.4    15:19  31.4     6:48   14    0  0.05   2  28    14:02 WSW 29.95   73
---------------------------------------------------------------------------------------
TOT  14.4  67.8  3/25/21  -1.5   3/1/21 1473    1  0.80   0  26  3/31/21 WSW 30.03   26

HEAT BASE: 65.0
COOL BASE: 65.0